sensor_id;sensor_type;location;lat;lon;timestamp;temperature;humidity
35531;DHT22;21637;53.352;-6.356;2022-09-09T00:04:28;15.50;99.90
35531;DHT22;21637;53.352;-6.356;2022-09-09T00:09:57;15.50;99.90
35531;DHT22;21637;53.352;-6.356;2022-09-09T00:12:34;15.40;99.90
35531;DHT22;21637;53.352;-6.356;2022-09-09T00:15:05;15.40;99.90
35531;DHT22;21637;53.352;-6.356;2022-09-09T00:17:42;15.40;99.90
35531;DHT22;21637;53.352;-6.356;2022-09-09T00:20:13;15.40;99.90
35531;DHT22;21637;53.352;-6.356;2022-09-09T00:22:40;15.40;99.90
35531;DHT22;21637;53.352;-6.356;2022-09-09T00:25:13;15.30;99.90
35531;DHT22;21637;53.352;-6.356;2022-09-09T00:27:47;15.30;99.90
35531;DHT22;21637;53.352;-6.356;2022-09-09T00:30:18;15.40;99.90
35531;DHT22;21637;53.352;-6.356;2022-09-09T00:32:48;15.30;99.90
35531;DHT22;21637;53.352;-6.356;2022-09-09T00:35:30;15.30;99.90
35531;DHT22;21637;53.352;-6.356;2022-09-09T00:37:57;15.40;99.90
35531;DHT22;21637;53.352;-6.356;2022-09-09T00:40:30;15.30;99.90
35531;DHT22;21637;53.352;-6.356;2022-09-09T00:48:01;15.30;99.90
35531;DHT22;21637;53.352;-6.356;2022-09-09T00:56:09;15.30;99.90
35531;DHT22;21637;53.352;-6.356;2022-09-09T00:58:37;15.30;99.90
35531;DHT22;21637;53.352;-6.356;2022-09-09T01:01:03;15.30;99.90
35531;DHT22;21637;53.352;-6.356;2022-09-09T01:11:26;15.30;99.90
35531;DHT22;21637;53.352;-6.356;2022-09-09T01:13:53;15.30;99.90
35531;DHT22;21637;53.352;-6.356;2022-09-09T01:16:21;15.30;99.90
35531;DHT22;21637;53.352;-6.356;2022-09-09T01:18:48;15.30;99.90
35531;DHT22;21637;53.352;-6.356;2022-09-09T01:26:37;15.30;99.90
35531;DHT22;21637;53.352;-6.356;2022-09-09T01:29:07;15.30;99.90
35531;DHT22;21637;53.352;-6.356;2022-09-09T01:31:38;15.30;99.90
35531;DHT22;21637;53.352;-6.356;2022-09-09T01:34:13;15.30;99.90
35531;DHT22;21637;53.352;-6.356;2022-09-09T01:39:23;15.30;99.90
35531;DHT22;21637;53.352;-6.356;2022-09-09T01:41:48;15.30;99.90
35531;DHT22;21637;53.352;-6.356;2022-09-09T01:44:14;15.30;99.90
35531;DHT22;21637;53.352;-6.356;2022-09-09T01:46:40;15.30;99.90
35531;DHT22;21637;53.352;-6.356;2022-09-09T01:49:06;15.30;99.90
35531;DHT22;21637;53.352;-6.356;2022-09-09T01:51:32;15.30;99.90
35531;DHT22;21637;53.352;-6.356;2022-09-09T01:53:59;15.30;99.90
35531;DHT22;21637;53.352;-6.356;2022-09-09T01:56:35;15.30;99.90
35531;DHT22;21637;53.352;-6.356;2022-09-09T02:04:40;15.30;99.90
35531;DHT22;21637;53.352;-6.356;2022-09-09T02:07:30;15.30;99.90
35531;DHT22;21637;53.352;-6.356;2022-09-09T02:09:57;15.30;99.90
35531;DHT22;21637;53.352;-6.356;2022-09-09T02:12:24;15.30;99.90
35531;DHT22;21637;53.352;-6.356;2022-09-09T02:14:52;15.30;99.90
35531;DHT22;21637;53.352;-6.356;2022-09-09T02:17:22;15.30;99.90
35531;DHT22;21637;53.352;-6.356;2022-09-09T02:19:52;15.30;99.90
35531;DHT22;21637;53.352;-6.356;2022-09-09T02:22:20;15.30;99.90
35531;DHT22;21637;53.352;-6.356;2022-09-09T02:24:48;15.30;99.90
35531;DHT22;21637;53.352;-6.356;2022-09-09T02:27:15;15.40;99.90
35531;DHT22;21637;53.352;-6.356;2022-09-09T02:29:42;15.40;99.90
35531;DHT22;21637;53.352;-6.356;2022-09-09T02:32:11;15.40;99.90
35531;DHT22;21637;53.352;-6.356;2022-09-09T02:34:39;15.30;99.90
35531;DHT22;21637;53.352;-6.356;2022-09-09T02:37:06;15.30;99.90
35531;DHT22;21637;53.352;-6.356;2022-09-09T02:39:33;15.30;99.90
35531;DHT22;21637;53.352;-6.356;2022-09-09T02:41:58;15.30;99.90
35531;DHT22;21637;53.352;-6.356;2022-09-09T02:44:25;15.30;99.90
35531;DHT22;21637;53.352;-6.356;2022-09-09T02:49:43;15.40;99.90
35531;DHT22;21637;53.352;-6.356;2022-09-09T02:52:13;15.30;99.90
35531;DHT22;21637;53.352;-6.356;2022-09-09T02:54:41;15.30;99.90
35531;DHT22;21637;53.352;-6.356;2022-09-09T02:57:12;15.30;99.90
35531;DHT22;21637;53.352;-6.356;2022-09-09T02:59:39;15.40;99.90
35531;DHT22;21637;53.352;-6.356;2022-09-09T03:02:05;15.40;99.90
35531;DHT22;21637;53.352;-6.356;2022-09-09T03:04:30;15.40;99.90
35531;DHT22;21637;53.352;-6.356;2022-09-09T03:06:56;15.40;99.90
35531;DHT22;21637;53.352;-6.356;2022-09-09T03:09:22;15.30;99.90
35531;DHT22;21637;53.352;-6.356;2022-09-09T03:11:48;15.30;99.90
35531;DHT22;21637;53.352;-6.356;2022-09-09T03:14:14;15.30;99.90
35531;DHT22;21637;53.352;-6.356;2022-09-09T03:16:40;15.40;99.90
35531;DHT22;21637;53.352;-6.356;2022-09-09T03:19:08;15.30;99.90
35531;DHT22;21637;53.352;-6.356;2022-09-09T03:21:33;15.30;99.90
35531;DHT22;21637;53.352;-6.356;2022-09-09T03:23:59;15.30;99.90
35531;DHT22;21637;53.352;-6.356;2022-09-09T03:26:25;15.30;99.90
35531;DHT22;21637;53.352;-6.356;2022-09-09T03:28:50;15.30;99.90
35531;DHT22;21637;53.352;-6.356;2022-09-09T03:31:17;15.30;99.90
35531;DHT22;21637;53.352;-6.356;2022-09-09T03:33:43;15.30;99.90
35531;DHT22;21637;53.352;-6.356;2022-09-09T03:36:09;15.30;99.90
35531;DHT22;21637;53.352;-6.356;2022-09-09T03:38:35;15.20;99.90
35531;DHT22;21637;53.352;-6.356;2022-09-09T03:41:01;15.20;99.90
35531;DHT22;21637;53.352;-6.356;2022-09-09T03:43:27;15.20;99.90
35531;DHT22;21637;53.352;-6.356;2022-09-09T03:45:53;15.20;99.90
35531;DHT22;21637;53.352;-6.356;2022-09-09T03:48:22;15.20;99.90
35531;DHT22;21637;53.352;-6.356;2022-09-09T03:50:48;15.20;99.90
35531;DHT22;21637;53.352;-6.356;2022-09-09T03:53:15;15.20;99.90
35531;DHT22;21637;53.352;-6.356;2022-09-09T03:55:47;15.20;99.90
35531;DHT22;21637;53.352;-6.356;2022-09-09T03:58:14;15.20;99.90
35531;DHT22;21637;53.352;-6.356;2022-09-09T04:00:40;15.20;99.90
35531;DHT22;21637;53.352;-6.356;2022-09-09T04:03:11;15.20;99.90
35531;DHT22;21637;53.352;-6.356;2022-09-09T04:05:39;15.10;99.90
35531;DHT22;21637;53.352;-6.356;2022-09-09T04:08:08;15.10;99.90
35531;DHT22;21637;53.352;-6.356;2022-09-09T04:10:34;15.20;99.90
35531;DHT22;21637;53.352;-6.356;2022-09-09T04:13:01;15.20;99.90
35531;DHT22;21637;53.352;-6.356;2022-09-09T04:15:27;15.20;99.90
35531;DHT22;21637;53.352;-6.356;2022-09-09T04:17:53;15.10;99.90
35531;DHT22;21637;53.352;-6.356;2022-09-09T04:20:18;15.10;99.90
35531;DHT22;21637;53.352;-6.356;2022-09-09T04:22:44;15.10;99.90
35531;DHT22;21637;53.352;-6.356;2022-09-09T04:25:10;15.10;99.90
35531;DHT22;21637;53.352;-6.356;2022-09-09T04:27:35;15.10;99.90
35531;DHT22;21637;53.352;-6.356;2022-09-09T04:30:01;15.10;99.90
35531;DHT22;21637;53.352;-6.356;2022-09-09T04:32:26;15.10;99.90
35531;DHT22;21637;53.352;-6.356;2022-09-09T04:34:52;15.10;99.90
35531;DHT22;21637;53.352;-6.356;2022-09-09T04:37:18;15.10;99.90
35531;DHT22;21637;53.352;-6.356;2022-09-09T04:39:43;15.10;99.90
35531;DHT22;21637;53.352;-6.356;2022-09-09T04:42:10;15.10;99.90
35531;DHT22;21637;53.352;-6.356;2022-09-09T04:44:36;15.00;99.90
35531;DHT22;21637;53.352;-6.356;2022-09-09T04:47:02;15.00;99.90
35531;DHT22;21637;53.352;-6.356;2022-09-09T04:49:27;15.00;99.90
35531;DHT22;21637;53.352;-6.356;2022-09-09T04:51:53;15.00;99.90
35531;DHT22;21637;53.352;-6.356;2022-09-09T04:54:18;15.00;99.90
35531;DHT22;21637;53.352;-6.356;2022-09-09T04:56:44;15.00;99.90
35531;DHT22;21637;53.352;-6.356;2022-09-09T04:59:09;15.00;99.90
35531;DHT22;21637;53.352;-6.356;2022-09-09T05:01:35;15.00;99.90
35531;DHT22;21637;53.352;-6.356;2022-09-09T05:04:02;15.00;99.90
35531;DHT22;21637;53.352;-6.356;2022-09-09T05:06:27;15.00;99.90
35531;DHT22;21637;53.352;-6.356;2022-09-09T05:08:54;15.00;99.90
35531;DHT22;21637;53.352;-6.356;2022-09-09T05:11:20;15.00;99.90
35531;DHT22;21637;53.352;-6.356;2022-09-09T05:13:48;15.00;99.90
35531;DHT22;21637;53.352;-6.356;2022-09-09T05:16:16;14.90;99.90
35531;DHT22;21637;53.352;-6.356;2022-09-09T05:18:41;15.00;99.90
35531;DHT22;21637;53.352;-6.356;2022-09-09T05:21:11;15.00;99.90
35531;DHT22;21637;53.352;-6.356;2022-09-09T05:23:37;15.00;99.90
35531;DHT22;21637;53.352;-6.356;2022-09-09T05:26:03;15.00;99.90
35531;DHT22;21637;53.352;-6.356;2022-09-09T05:28:29;15.00;99.90
35531;DHT22;21637;53.352;-6.356;2022-09-09T05:30:59;15.00;99.90
35531;DHT22;21637;53.352;-6.356;2022-09-09T05:33:26;14.90;99.90
35531;DHT22;21637;53.352;-6.356;2022-09-09T05:36:02;14.90;99.90
35531;DHT22;21637;53.352;-6.356;2022-09-09T05:38:28;15.00;99.90
35531;DHT22;21637;53.352;-6.356;2022-09-09T05:40:54;15.00;99.90
35531;DHT22;21637;53.352;-6.356;2022-09-09T05:43:21;15.00;99.90
35531;DHT22;21637;53.352;-6.356;2022-09-09T05:45:47;15.00;99.90
35531;DHT22;21637;53.352;-6.356;2022-09-09T05:48:15;15.00;99.90
35531;DHT22;21637;53.352;-6.356;2022-09-09T05:50:41;15.00;99.90
35531;DHT22;21637;53.352;-6.356;2022-09-09T05:53:08;15.00;99.90
35531;DHT22;21637;53.352;-6.356;2022-09-09T05:55:34;15.00;99.90
35531;DHT22;21637;53.352;-6.356;2022-09-09T05:57:59;15.00;99.90
35531;DHT22;21637;53.352;-6.356;2022-09-09T06:00:25;15.00;99.90
35531;DHT22;21637;53.352;-6.356;2022-09-09T06:02:51;15.00;99.90
35531;DHT22;21637;53.352;-6.356;2022-09-09T06:05:18;15.00;99.90
35531;DHT22;21637;53.352;-6.356;2022-09-09T06:07:43;15.00;99.90
35531;DHT22;21637;53.352;-6.356;2022-09-09T06:10:10;15.00;99.90
35531;DHT22;21637;53.352;-6.356;2022-09-09T06:12:36;15.10;99.90
35531;DHT22;21637;53.352;-6.356;2022-09-09T06:15:01;15.10;99.90
35531;DHT22;21637;53.352;-6.356;2022-09-09T06:17:27;15.00;99.90
35531;DHT22;21637;53.352;-6.356;2022-09-09T06:19:53;15.00;99.90
35531;DHT22;21637;53.352;-6.356;2022-09-09T06:22:18;15.00;99.90
35531;DHT22;21637;53.352;-6.356;2022-09-09T06:24:44;15.00;99.90
35531;DHT22;21637;53.352;-6.356;2022-09-09T06:27:10;15.10;99.90
35531;DHT22;21637;53.352;-6.356;2022-09-09T06:29:36;15.10;99.90
35531;DHT22;21637;53.352;-6.356;2022-09-09T06:32:02;15.10;99.90
35531;DHT22;21637;53.352;-6.356;2022-09-09T06:34:28;15.20;99.90
35531;DHT22;21637;53.352;-6.356;2022-09-09T06:36:53;15.20;99.90
35531;DHT22;21637;53.352;-6.356;2022-09-09T06:39:19;15.20;99.90
35531;DHT22;21637;53.352;-6.356;2022-09-09T06:41:44;15.20;99.90
35531;DHT22;21637;53.352;-6.356;2022-09-09T06:44:10;15.20;99.90
35531;DHT22;21637;53.352;-6.356;2022-09-09T06:46:37;15.30;99.90
35531;DHT22;21637;53.352;-6.356;2022-09-09T06:49:03;15.20;99.90
35531;DHT22;21637;53.352;-6.356;2022-09-09T06:51:30;15.30;99.90
35531;DHT22;21637;53.352;-6.356;2022-09-09T06:53:56;15.30;99.90
35531;DHT22;21637;53.352;-6.356;2022-09-09T06:56:23;15.30;99.90
35531;DHT22;21637;53.352;-6.356;2022-09-09T06:58:52;15.30;99.90
35531;DHT22;21637;53.352;-6.356;2022-09-09T07:01:19;15.30;99.90
35531;DHT22;21637;53.352;-6.356;2022-09-09T07:03:47;15.40;99.90
35531;DHT22;21637;53.352;-6.356;2022-09-09T07:06:20;15.40;99.90
35531;DHT22;21637;53.352;-6.356;2022-09-09T07:08:52;15.40;99.90
35531;DHT22;21637;53.352;-6.356;2022-09-09T07:11:19;15.50;99.90
35531;DHT22;21637;53.352;-6.356;2022-09-09T07:13:45;15.60;99.90
35531;DHT22;21637;53.352;-6.356;2022-09-09T07:16:11;15.60;99.90
35531;DHT22;21637;53.352;-6.356;2022-09-09T07:18:38;15.60;99.90
35531;DHT22;21637;53.352;-6.356;2022-09-09T07:21:04;15.60;99.90
35531;DHT22;21637;53.352;-6.356;2022-09-09T07:23:30;15.60;99.90
35531;DHT22;21637;53.352;-6.356;2022-09-09T07:25:56;15.60;99.90
35531;DHT22;21637;53.352;-6.356;2022-09-09T07:28:23;15.70;99.90
35531;DHT22;21637;53.352;-6.356;2022-09-09T07:30:56;15.70;99.90
35531;DHT22;21637;53.352;-6.356;2022-09-09T07:33:22;15.70;99.90
35531;DHT22;21637;53.352;-6.356;2022-09-09T07:35:47;15.70;99.90
35531;DHT22;21637;53.352;-6.356;2022-09-09T07:38:13;15.70;99.90
35531;DHT22;21637;53.352;-6.356;2022-09-09T07:40:40;15.70;99.90
35531;DHT22;21637;53.352;-6.356;2022-09-09T07:43:05;15.80;99.90
35531;DHT22;21637;53.352;-6.356;2022-09-09T07:45:31;15.90;99.90
35531;DHT22;21637;53.352;-6.356;2022-09-09T07:47:58;16.00;99.90
35531;DHT22;21637;53.352;-6.356;2022-09-09T07:50:24;16.10;99.90
35531;DHT22;21637;53.352;-6.356;2022-09-09T07:52:51;16.10;99.90
35531;DHT22;21637;53.352;-6.356;2022-09-09T07:55:17;16.20;99.90
35531;DHT22;21637;53.352;-6.356;2022-09-09T07:57:42;16.30;99.90
35531;DHT22;21637;53.352;-6.356;2022-09-09T08:00:08;16.30;99.90
35531;DHT22;21637;53.352;-6.356;2022-09-09T08:02:35;16.30;99.90
35531;DHT22;21637;53.352;-6.356;2022-09-09T08:05:01;16.20;99.90
35531;DHT22;21637;53.352;-6.356;2022-09-09T08:07:27;16.20;99.90
35531;DHT22;21637;53.352;-6.356;2022-09-09T08:09:53;16.30;99.90
35531;DHT22;21637;53.352;-6.356;2022-09-09T08:12:21;16.40;99.90
35531;DHT22;21637;53.352;-6.356;2022-09-09T08:14:46;16.40;99.90
35531;DHT22;21637;53.352;-6.356;2022-09-09T08:17:12;16.50;99.90
35531;DHT22;21637;53.352;-6.356;2022-09-09T08:19:38;16.70;99.90
35531;DHT22;21637;53.352;-6.356;2022-09-09T08:22:03;16.90;99.90
35531;DHT22;21637;53.352;-6.356;2022-09-09T08:24:29;17.00;99.90
35531;DHT22;21637;53.352;-6.356;2022-09-09T08:26:54;17.20;99.90
35531;DHT22;21637;53.352;-6.356;2022-09-09T08:29:22;17.20;99.90
35531;DHT22;21637;53.352;-6.356;2022-09-09T08:31:49;17.50;99.90
35531;DHT22;21637;53.352;-6.356;2022-09-09T08:34:15;17.50;99.90
35531;DHT22;21637;53.352;-6.356;2022-09-09T08:36:41;17.50;99.90
35531;DHT22;21637;53.352;-6.356;2022-09-09T08:39:08;17.50;99.90
35531;DHT22;21637;53.352;-6.356;2022-09-09T08:44:23;17.40;99.90
35531;DHT22;21637;53.352;-6.356;2022-09-09T08:46:54;17.30;99.90
35531;DHT22;21637;53.352;-6.356;2022-09-09T08:49:41;17.30;99.90
35531;DHT22;21637;53.352;-6.356;2022-09-09T08:52:13;17.30;99.90
35531;DHT22;21637;53.352;-6.356;2022-09-09T08:54:41;17.40;99.90
35531;DHT22;21637;53.352;-6.356;2022-09-09T08:57:09;17.30;99.90
35531;DHT22;21637;53.352;-6.356;2022-09-09T08:59:37;17.40;99.90
35531;DHT22;21637;53.352;-6.356;2022-09-09T09:12:35;17.30;99.90
35531;DHT22;21637;53.352;-6.356;2022-09-09T09:15:05;17.40;99.90
35531;DHT22;21637;53.352;-6.356;2022-09-09T09:17:36;17.30;99.90
35531;DHT22;21637;53.352;-6.356;2022-09-09T09:20:02;17.30;99.90
35531;DHT22;21637;53.352;-6.356;2022-09-09T09:25:02;17.40;99.90
35531;DHT22;21637;53.352;-6.356;2022-09-09T09:27:40;17.40;99.90
35531;DHT22;21637;53.352;-6.356;2022-09-09T09:30:18;17.50;99.90
35531;DHT22;21637;53.352;-6.356;2022-09-09T09:32:50;17.50;99.90
35531;DHT22;21637;53.352;-6.356;2022-09-09T09:35:17;17.60;99.90
35531;DHT22;21637;53.352;-6.356;2022-09-09T09:37:42;17.60;99.90
35531;DHT22;21637;53.352;-6.356;2022-09-09T09:40:12;17.70;99.90
35531;DHT22;21637;53.352;-6.356;2022-09-09T09:42:47;17.80;99.90
35531;DHT22;21637;53.352;-6.356;2022-09-09T09:45:32;17.90;99.90
35531;DHT22;21637;53.352;-6.356;2022-09-09T09:47:58;17.90;99.90
35531;DHT22;21637;53.352;-6.356;2022-09-09T09:50:24;17.80;99.90
35531;DHT22;21637;53.352;-6.356;2022-09-09T09:52:54;17.80;99.90
35531;DHT22;21637;53.352;-6.356;2022-09-09T09:55:20;17.90;99.90
35531;DHT22;21637;53.352;-6.356;2022-09-09T09:57:46;17.90;99.90
35531;DHT22;21637;53.352;-6.356;2022-09-09T10:00:13;18.00;99.90
35531;DHT22;21637;53.352;-6.356;2022-09-09T10:02:40;18.00;99.90
35531;DHT22;21637;53.352;-6.356;2022-09-09T10:05:29;17.90;99.90
35531;DHT22;21637;53.352;-6.356;2022-09-09T10:08:01;18.00;99.90
35531;DHT22;21637;53.352;-6.356;2022-09-09T10:10:39;18.00;99.90
35531;DHT22;21637;53.352;-6.356;2022-09-09T10:15:52;18.00;99.90
35531;DHT22;21637;53.352;-6.356;2022-09-09T10:18:34;18.00;99.90
35531;DHT22;21637;53.352;-6.356;2022-09-09T10:26:22;18.10;99.90
35531;DHT22;21637;53.352;-6.356;2022-09-09T10:31:41;18.40;99.90
35531;DHT22;21637;53.352;-6.356;2022-09-09T10:34:45;18.60;99.90
35531;DHT22;21637;53.352;-6.356;2022-09-09T10:37:04;18.70;99.90
35531;DHT22;21637;53.352;-6.356;2022-09-09T10:39:35;18.90;99.90
35531;DHT22;21637;53.352;-6.356;2022-09-09T10:42:04;19.00;99.90
35531;DHT22;21637;53.352;-6.356;2022-09-09T10:45:17;18.90;99.90
35531;DHT22;21637;53.352;-6.356;2022-09-09T10:52:16;18.60;99.90
35531;DHT22;21637;53.352;-6.356;2022-09-09T10:54:50;18.70;99.90
35531;DHT22;21637;53.352;-6.356;2022-09-09T10:59:58;18.70;99.90
35531;DHT22;21637;53.352;-6.356;2022-09-09T11:02:29;18.60;99.90
35531;DHT22;21637;53.352;-6.356;2022-09-09T11:10:02;18.60;99.90
35531;DHT22;21637;53.352;-6.356;2022-09-09T11:12:31;18.60;99.90
35531;DHT22;21637;53.352;-6.356;2022-09-09T11:15:04;18.50;99.90
35531;DHT22;21637;53.352;-6.356;2022-09-09T11:17:33;18.50;99.90
35531;DHT22;21637;53.352;-6.356;2022-09-09T11:20:01;18.40;99.90
35531;DHT22;21637;53.352;-6.356;2022-09-09T11:25:05;18.30;99.90
35531;DHT22;21637;53.352;-6.356;2022-09-09T11:27:36;18.40;99.90
35531;DHT22;21637;53.352;-6.356;2022-09-09T11:30:21;18.30;99.90
35531;DHT22;21637;53.352;-6.356;2022-09-09T11:35:39;18.20;99.90
35531;DHT22;21637;53.352;-6.356;2022-09-09T11:40:57;18.20;99.90
35531;DHT22;21637;53.352;-6.356;2022-09-09T11:43:40;18.30;99.90
35531;DHT22;21637;53.352;-6.356;2022-09-09T11:46:07;18.40;99.90
35531;DHT22;21637;53.352;-6.356;2022-09-09T11:51:01;18.70;99.90
35531;DHT22;21637;53.352;-6.356;2022-09-09T11:53:28;18.60;99.90
35531;DHT22;21637;53.352;-6.356;2022-09-09T11:56:07;18.70;99.90
35531;DHT22;21637;53.352;-6.356;2022-09-09T11:58:38;18.70;99.90
35531;DHT22;21637;53.352;-6.356;2022-09-09T12:01:16;18.70;99.90
35531;DHT22;21637;53.352;-6.356;2022-09-09T12:03:51;18.80;99.90
35531;DHT22;21637;53.352;-6.356;2022-09-09T12:06:30;18.90;99.90
35531;DHT22;21637;53.352;-6.356;2022-09-09T12:09:09;18.90;99.90
35531;DHT22;21637;53.352;-6.356;2022-09-09T12:11:37;19.00;99.90
35531;DHT22;21637;53.352;-6.356;2022-09-09T12:14:03;19.00;99.90
35531;DHT22;21637;53.352;-6.356;2022-09-09T12:21:38;19.10;99.90
35531;DHT22;21637;53.352;-6.356;2022-09-09T12:24:13;19.20;99.90
35531;DHT22;21637;53.352;-6.356;2022-09-09T12:26:43;19.30;99.90
35531;DHT22;21637;53.352;-6.356;2022-09-09T12:36:57;19.10;99.90
35531;DHT22;21637;53.352;-6.356;2022-09-09T12:39:29;18.90;99.90
35531;DHT22;21637;53.352;-6.356;2022-09-09T12:41:57;18.80;99.90
35531;DHT22;21637;53.352;-6.356;2022-09-09T12:44:23;18.70;99.90
35531;DHT22;21637;53.352;-6.356;2022-09-09T12:46:50;18.80;99.90
35531;DHT22;21637;53.352;-6.356;2022-09-09T12:49:37;18.80;99.90
35531;DHT22;21637;53.352;-6.356;2022-09-09T12:52:05;18.80;99.90
35531;DHT22;21637;53.352;-6.356;2022-09-09T12:54:35;19.00;99.90
35531;DHT22;21637;53.352;-6.356;2022-09-09T12:57:01;19.10;99.90
35531;DHT22;21637;53.352;-6.356;2022-09-09T12:59:35;19.20;99.90
35531;DHT22;21637;53.352;-6.356;2022-09-09T13:02:01;19.20;99.90
35531;DHT22;21637;53.352;-6.356;2022-09-09T13:04:26;19.30;99.90
35531;DHT22;21637;53.352;-6.356;2022-09-09T13:06:52;19.30;99.90
35531;DHT22;21637;53.352;-6.356;2022-09-09T13:09:18;19.40;99.90
35531;DHT22;21637;53.352;-6.356;2022-09-09T13:11:46;19.40;99.90
35531;DHT22;21637;53.352;-6.356;2022-09-09T13:14:26;19.40;99.90
35531;DHT22;21637;53.352;-6.356;2022-09-09T13:16:54;19.40;99.90
35531;DHT22;21637;53.352;-6.356;2022-09-09T13:19:20;19.40;99.90
35531;DHT22;21637;53.352;-6.356;2022-09-09T13:21:46;19.40;99.90
35531;DHT22;21637;53.352;-6.356;2022-09-09T13:24:45;19.40;99.90
35531;DHT22;21637;53.352;-6.356;2022-09-09T13:27:05;19.40;99.90
35531;DHT22;21637;53.352;-6.356;2022-09-09T13:29:50;19.40;99.90
35531;DHT22;21637;53.352;-6.356;2022-09-09T13:32:16;19.40;99.90
35531;DHT22;21637;53.352;-6.356;2022-09-09T13:34:50;19.50;99.90
35531;DHT22;21637;53.352;-6.356;2022-09-09T13:37:21;19.40;99.90
35531;DHT22;21637;53.352;-6.356;2022-09-09T13:39:52;19.30;99.90
35531;DHT22;21637;53.352;-6.356;2022-09-09T13:42:27;19.30;99.90
35531;DHT22;21637;53.352;-6.356;2022-09-09T13:44:53;19.10;99.90
35531;DHT22;21637;53.352;-6.356;2022-09-09T13:47:21;19.10;99.90
35531;DHT22;21637;53.352;-6.356;2022-09-09T13:49:48;19.00;99.90
35531;DHT22;21637;53.352;-6.356;2022-09-09T13:52:17;19.00;99.90
35531;DHT22;21637;53.352;-6.356;2022-09-09T13:54:50;19.10;99.90
35531;DHT22;21637;53.352;-6.356;2022-09-09T13:57:17;19.20;99.90
35531;DHT22;21637;53.352;-6.356;2022-09-09T13:59:44;19.30;99.90
35531;DHT22;21637;53.352;-6.356;2022-09-09T14:02:09;19.20;99.90
35531;DHT22;21637;53.352;-6.356;2022-09-09T14:04:35;19.20;99.90
35531;DHT22;21637;53.352;-6.356;2022-09-09T14:07:01;19.10;99.90
35531;DHT22;21637;53.352;-6.356;2022-09-09T14:09:27;19.00;99.90
35531;DHT22;21637;53.352;-6.356;2022-09-09T14:11:52;18.90;99.90
35531;DHT22;21637;53.352;-6.356;2022-09-09T14:14:18;18.70;99.90
35531;DHT22;21637;53.352;-6.356;2022-09-09T14:16:44;18.50;99.90
35531;DHT22;21637;53.352;-6.356;2022-09-09T14:19:09;18.40;99.90
35531;DHT22;21637;53.352;-6.356;2022-09-09T14:21:35;18.30;99.90
35531;DHT22;21637;53.352;-6.356;2022-09-09T14:24:01;18.10;99.90
35531;DHT22;21637;53.352;-6.356;2022-09-09T14:26:26;18.10;99.90
35531;DHT22;21637;53.352;-6.356;2022-09-09T14:28:54;18.10;99.90
35531;DHT22;21637;53.352;-6.356;2022-09-09T14:31:20;18.10;99.90
35531;DHT22;21637;53.352;-6.356;2022-09-09T14:33:46;18.10;99.90
35531;DHT22;21637;53.352;-6.356;2022-09-09T14:36:12;18.10;99.90
35531;DHT22;21637;53.352;-6.356;2022-09-09T14:38:38;18.20;99.90
35531;DHT22;21637;53.352;-6.356;2022-09-09T14:41:09;18.20;99.90
35531;DHT22;21637;53.352;-6.356;2022-09-09T14:43:36;18.30;99.90
35531;DHT22;21637;53.352;-6.356;2022-09-09T14:46:10;18.40;99.90
35531;DHT22;21637;53.352;-6.356;2022-09-09T14:48:35;18.40;99.90
35531;DHT22;21637;53.352;-6.356;2022-09-09T14:51:11;18.30;99.90
35531;DHT22;21637;53.352;-6.356;2022-09-09T14:53:38;18.40;99.90
35531;DHT22;21637;53.352;-6.356;2022-09-09T14:56:08;18.40;99.90
35531;DHT22;21637;53.352;-6.356;2022-09-09T14:58:34;18.40;99.90
35531;DHT22;21637;53.352;-6.356;2022-09-09T15:01:08;18.40;99.90
35531;DHT22;21637;53.352;-6.356;2022-09-09T15:03:36;18.40;99.90
35531;DHT22;21637;53.352;-6.356;2022-09-09T15:06:09;18.50;99.90
35531;DHT22;21637;53.352;-6.356;2022-09-09T15:08:35;18.60;99.90
35531;DHT22;21637;53.352;-6.356;2022-09-09T15:11:02;18.60;99.90
35531;DHT22;21637;53.352;-6.356;2022-09-09T15:13:28;18.70;99.90
35531;DHT22;21637;53.352;-6.356;2022-09-09T15:15:53;18.70;99.90
35531;DHT22;21637;53.352;-6.356;2022-09-09T15:18:20;18.80;99.90
35531;DHT22;21637;53.352;-6.356;2022-09-09T15:20:45;18.90;99.90
35531;DHT22;21637;53.352;-6.356;2022-09-09T15:23:11;19.00;99.90
35531;DHT22;21637;53.352;-6.356;2022-09-09T15:25:37;19.10;99.90
35531;DHT22;21637;53.352;-6.356;2022-09-09T15:28:03;19.20;99.90
35531;DHT22;21637;53.352;-6.356;2022-09-09T15:30:28;19.20;99.90
35531;DHT22;21637;53.352;-6.356;2022-09-09T15:32:54;19.20;99.90
35531;DHT22;21637;53.352;-6.356;2022-09-09T15:35:20;19.30;99.90
35531;DHT22;21637;53.352;-6.356;2022-09-09T15:37:45;19.20;99.90
35531;DHT22;21637;53.352;-6.356;2022-09-09T15:40:11;19.10;99.90
35531;DHT22;21637;53.352;-6.356;2022-09-09T15:42:36;19.00;99.90
35531;DHT22;21637;53.352;-6.356;2022-09-09T15:45:02;18.90;99.90
35531;DHT22;21637;53.352;-6.356;2022-09-09T15:47:30;18.90;99.90
35531;DHT22;21637;53.352;-6.356;2022-09-09T15:49:55;18.90;99.90
35531;DHT22;21637;53.352;-6.356;2022-09-09T15:52:21;18.80;99.90
35531;DHT22;21637;53.352;-6.356;2022-09-09T15:54:47;18.80;99.90
35531;DHT22;21637;53.352;-6.356;2022-09-09T15:57:12;18.80;99.90
35531;DHT22;21637;53.352;-6.356;2022-09-09T15:59:38;18.80;99.90
35531;DHT22;21637;53.352;-6.356;2022-09-09T16:02:05;18.80;99.90
35531;DHT22;21637;53.352;-6.356;2022-09-09T16:04:31;18.70;99.90
35531;DHT22;21637;53.352;-6.356;2022-09-09T16:07:02;18.60;99.90
35531;DHT22;21637;53.352;-6.356;2022-09-09T16:09:29;18.70;99.90
35531;DHT22;21637;53.352;-6.356;2022-09-09T16:12:00;18.90;99.90
35531;DHT22;21637;53.352;-6.356;2022-09-09T16:14:26;19.10;99.90
35531;DHT22;21637;53.352;-6.356;2022-09-09T16:16:52;19.10;99.90
35531;DHT22;21637;53.352;-6.356;2022-09-09T16:19:18;19.10;99.90
35531;DHT22;21637;53.352;-6.356;2022-09-09T16:21:45;19.00;99.90
35531;DHT22;21637;53.352;-6.356;2022-09-09T16:24:12;18.90;99.90
35531;DHT22;21637;53.352;-6.356;2022-09-09T16:26:39;18.80;99.90
35531;DHT22;21637;53.352;-6.356;2022-09-09T16:29:05;18.80;99.90
35531;DHT22;21637;53.352;-6.356;2022-09-09T16:31:31;18.90;99.90
35531;DHT22;21637;53.352;-6.356;2022-09-09T16:33:59;18.90;99.90
35531;DHT22;21637;53.352;-6.356;2022-09-09T16:36:26;18.90;99.90
35531;DHT22;21637;53.352;-6.356;2022-09-09T16:38:56;18.80;99.90
35531;DHT22;21637;53.352;-6.356;2022-09-09T16:41:22;18.80;99.90
35531;DHT22;21637;53.352;-6.356;2022-09-09T16:43:52;18.70;99.90
35531;DHT22;21637;53.352;-6.356;2022-09-09T16:46:18;18.70;99.90
35531;DHT22;21637;53.352;-6.356;2022-09-09T16:48:45;18.60;99.90
35531;DHT22;21637;53.352;-6.356;2022-09-09T16:51:12;18.60;99.90
35531;DHT22;21637;53.352;-6.356;2022-09-09T16:53:39;18.50;99.90
35531;DHT22;21637;53.352;-6.356;2022-09-09T16:56:05;18.50;99.90
35531;DHT22;21637;53.352;-6.356;2022-09-09T16:58:31;18.50;99.90
35531;DHT22;21637;53.352;-6.356;2022-09-09T17:00:58;18.40;99.90
35531;DHT22;21637;53.352;-6.356;2022-09-09T17:03:23;18.40;99.90
35531;DHT22;21637;53.352;-6.356;2022-09-09T17:05:49;18.30;99.90